Time;durP1;ratioP1;P1;durP2;ratioP2;P2;SDS_P1;SDS_P2;PMS_P1;PMS_P2;Temp;Humidity;BMP_temperature;BMP_pressure;BME280_temperature;BME280_humidity;BME280_pressure;Samples;Min_cycle;Max_cycle;Signal;HPM_P1;HPM_P2
2021/03/18 00:00:30;;;;;;;9.30;4.13;;;4.20;83.40;;;5.19;64.62;101553.44;5032919;28;20128;-80
2021/03/18 00:02:57;;;;;;;11.25;4.28;;;4.20;83.80;;;5.21;65.19;101563.13;5034824;28;20475;-80
2021/03/18 00:05:24;;;;;;;14.20;3.95;;;4.20;84.20;;;5.13;65.05;101564.75;5033575;28;20525;-80
2021/03/18 00:07:50;;;;;;;11.15;4.18;;;4.10;84.00;;;5.06;65.09;101565.25;5034191;28;20045;-80
2021/03/18 00:10:18;;;;;;;11.95;3.90;;;4.10;84.20;;;5.07;65.21;101558.84;5033716;28;20152;-80
2021/03/18 00:12:46;;;;;;;9.55;4.03;;;4.00;84.30;;;5.02;64.80;101557.50;5033671;28;20052;-80
2021/03/18 00:15:14;;;;;;;9.02;4.18;;;4.00;84.60;;;4.99;65.12;101565.81;5032887;28;20060;-80
2021/03/18 00:17:42;;;;;;;9.95;4.05;;;3.90;84.80;;;4.97;65.29;101565.97;5032280;28;20187;-80
2021/03/18 00:20:12;;;;;;;8.05;4.20;;;3.80;85.00;;;4.87;65.35;101563.16;5033978;28;20128;-79
2021/03/18 00:22:40;;;;;;;11.48;4.20;;;3.80;85.20;;;4.74;65.42;101572.31;5033316;28;20061;-80
2021/03/18 00:25:10;;;;;;;9.52;4.20;;;3.70;85.20;;;4.63;65.67;101563.25;5033434;28;20445;-80
2021/03/18 00:27:37;;;;;;;10.85;4.60;;;3.60;85.20;;;4.57;65.78;101569.13;5033535;28;20124;-79
2021/03/18 00:30:06;;;;;;;10.02;4.50;;;3.50;85.40;;;4.56;65.97;101566.53;5031958;28;20041;-80
2021/03/18 00:32:33;;;;;;;10.02;4.43;;;3.50;85.70;;;4.56;65.66;101567.38;5032943;28;20124;-80
2021/03/18 00:35:01;;;;;;;13.90;4.55;;;3.50;85.90;;;4.56;66.21;101567.38;5033928;28;20121;-80
2021/03/18 00:37:28;;;;;;;10.50;4.10;;;3.50;86.20;;;4.58;66.49;101569.97;5032502;28;20052;-80
2021/03/18 00:39:55;;;;;;;9.48;4.50;;;3.50;86.20;;;4.57;66.20;101566.44;5032788;28;20050;-80
2021/03/18 00:42:23;;;;;;;8.98;4.40;;;3.50;86.10;;;4.62;66.58;101569.59;5031846;28;20084;-79
2021/03/18 00:44:51;;;;;;;10.80;4.55;;;3.50;86.50;;;4.57;66.87;101571.81;5033175;28;20471;-80
2021/03/18 00:47:18;;;;;;;12.85;4.78;;;3.40;86.70;;;4.51;66.20;101569.56;5029103;28;20494;-79
2021/03/18 00:49:45;;;;;;;8.63;4.63;;;3.40;86.50;;;4.52;66.46;101568.59;5031999;28;20049;-80
2021/03/18 00:52:12;;;;;;;11.00;4.55;;;3.40;86.60;;;4.54;66.16;101580.13;5033048;28;20068;-79
2021/03/18 00:54:40;;;;;;;11.90;4.85;;;3.40;86.70;;;4.48;66.16;101580.63;5033497;28;20049;-79
2021/03/18 00:57:08;;;;;;;10.25;4.22;;;3.40;86.70;;;4.45;66.31;101575.44;5025074;28;20052;-79
2021/03/18 00:59:35;;;;;;;10.35;4.25;;;3.30;86.90;;;4.45;66.72;101580.84;5031458;28;20053;-79
2021/03/18 01:02:02;;;;;;;10.75;4.63;;;3.40;86.70;;;4.53;66.50;101589.19;5032078;28;20184;-80
2021/03/18 01:04:29;;;;;;;7.93;3.78;;;3.40;87.00;;;4.48;66.71;101594.94;5033534;28;20052;-80
2021/03/18 01:06:57;;;;;;;13.70;4.57;;;3.30;87.00;;;4.39;66.99;101598.34;5030932;28;20052;-81
2021/03/18 01:09:24;;;;;;;10.07;4.32;;;3.30;87.00;;;4.41;66.96;101590.16;5032204;28;20112;-80
2021/03/18 01:11:51;;;;;;;7.47;4.65;;;3.30;87.10;;;4.38;66.76;101579.59;5032109;28;20132;-80
2021/03/18 01:14:18;;;;;;;12.15;5.05;;;3.30;87.30;;;4.33;66.60;101579.09;5032061;28;20071;-79
2021/03/18 01:16:48;;;;;;;15.63;4.32;;;3.20;86.90;;;4.35;66.67;101579.84;5031846;28;20052;-80
2021/03/18 01:19:17;;;;;;;15.00;5.00;;;3.20;87.20;;;4.34;67.34;101578.09;5032687;28;20194;-80
2021/03/18 01:21:52;;;;;;;13.27;4.78;;;3.30;87.50;;;4.34;67.04;101584.38;5032082;28;20052;-79
2021/03/18 01:24:19;;;;;;;11.32;4.57;;;3.20;87.40;;;4.34;67.34;101581.69;5032719;28;20048;-79
2021/03/18 01:26:47;;;;;;;11.43;4.68;;;3.20;87.60;;;4.29;67.15;101582.03;5031437;28;20140;-79
2021/03/18 01:29:14;;;;;;;12.77;4.68;;;3.20;87.60;;;4.34;67.61;101583.50;5033199;28;20535;-79
2021/03/18 01:31:42;;;;;;;11.68;5.05;;;3.20;87.70;;;4.31;67.52;101585.44;5032545;28;20087;-79
2021/03/18 01:34:10;;;;;;;7.60;4.55;;;3.20;87.70;;;4.22;67.40;101582.59;5032383;28;20135;-80
2021/03/18 01:36:38;;;;;;;11.27;4.88;;;3.20;87.70;;;4.29;68.15;101581.16;5032162;28;20152;-79
2021/03/18 01:39:07;;;;;;;8.73;4.47;;;3.20;87.80;;;4.26;67.79;101581.41;5031462;28;20120;-79
2021/03/18 01:41:34;;;;;;;13.18;4.60;;;3.20;88.00;;;4.25;67.49;101580.53;5031821;28;20041;-79
2021/03/18 01:44:03;;;;;;;10.80;4.53;;;3.20;88.10;;;4.36;67.93;101576.16;5031474;28;20132;-79
2021/03/18 01:46:30;;;;;;;11.98;4.50;;;3.20;88.30;;;4.22;67.47;101574.53;5032069;28;20056;-79
2021/03/18 01:48:56;;;;;;;9.15;4.78;;;3.20;88.00;;;4.15;67.92;101575.97;5033306;28;20511;-79
2021/03/18 01:51:23;;;;;;;11.40;5.00;;;3.20;88.10;;;4.12;67.91;101574.38;5031354;28;20037;-79
2021/03/18 01:53:50;;;;;;;11.38;5.32;;;3.20;88.40;;;4.14;68.79;101571.56;5031771;28;20073;-79
2021/03/18 01:56:18;;;;;;;12.10;5.15;;;3.20;88.60;;;4.13;68.73;101569.84;5029146;28;20144;-79
2021/03/18 01:58:46;;;;;;;7.60;4.93;;;3.20;88.60;;;4.11;68.10;101570.81;5031923;28;20045;-79
2021/03/18 02:01:18;;;;;;;12.60;5.15;;;3.20;88.50;;;4.13;68.67;101576.06;5031003;28;20104;-79
2021/03/18 02:03:45;;;;;;;;;;;3.10;88.40;;;4.09;68.23;101571.91;5030974;28;20045;-79
2021/03/18 02:06:11;;;;;;;11.45;6.50;;;3.10;88.50;;;4.03;68.42;101575.91;5031784;28;19960;-79
2021/03/18 02:08:38;;;;;;;12.52;4.65;;;3.10;88.30;;;4.04;68.52;101568.72;5031676;28;20041;-79
2021/03/18 02:11:06;;;;;;;11.00;4.57;;;3.00;88.40;;;3.96;68.47;101571.09;5031907;28;20464;-79
2021/03/18 02:13:33;;;;;;;10.57;4.57;;;3.00;88.30;;;4.00;68.08;101572.59;5030898;28;20045;-79
2021/03/18 02:16:04;;;;;;;10.15;4.78;;;3.00;88.70;;;3.97;68.15;101564.75;5031084;28;20082;-80
2021/03/18 02:18:46;;;;;;;;;;;2.90;89.10;;;3.92;68.64;101563.28;5032352;28;20088;-79
2021/03/18 02:22:11;;;;;;;12.23;4.32;;;2.90;88.90;;;3.85;68.34;101553.94;5031938;28;19952;-79
2021/03/18 02:24:49;;;;;;;10.13;4.72;;;2.80;88.70;;;3.84;68.98;101567.50;5030131;28;20132;-79
2021/03/18 02:28:00;;;;;;;13.90;5.18;;;2.80;89.00;;;3.81;68.71;101557.84;5031004;28;20076;-79
2021/03/18 02:31:03;;;;;;;13.10;5.60;;;2.80;89.10;;;3.80;69.22;101563.34;5031055;28;20045;-79
2021/03/18 02:34:12;;;;;;;13.27;5.30;;;2.80;89.40;;;3.76;69.53;101551.94;5030825;28;20304;-79
2021/03/18 02:36:46;;;;;;;14.40;5.28;;;2.80;89.40;;;3.81;68.96;101549.75;5029008;28;20072;-79
2021/03/18 02:39:24;;;;;;;15.32;5.20;;;2.80;89.50;;;3.79;68.77;101540.94;5031730;28;20462;-80
2021/03/18 02:41:56;;;;;;;12.02;4.88;;;2.80;89.40;;;3.71;69.26;101532.56;5031557;28;20037;-79
2021/03/18 02:44:26;;;;;;;9.85;5.15;;;2.70;89.60;;;3.69;69.25;101540.78;5031015;28;20091;-79
2021/03/18 02:47:01;;;;;;;9.63;4.78;;;2.70;89.50;;;3.71;69.73;101537.94;5031344;28;20112;-80
2021/03/18 02:49:29;;;;;;;9.40;4.90;;;2.70;89.90;;;3.70;69.09;101531.72;5030587;28;20411;-79
2021/03/18 02:51:58;;;;;;;14.27;5.63;;;2.70;89.70;;;3.70;69.46;101525.47;5031752;28;20087;-79
2021/03/18 02:54:27;;;;;;;12.82;5.05;;;2.70;89.60;;;3.74;69.78;101534.19;5030528;28;20050;-79
2021/03/18 02:57:00;;;;;;;13.15;5.90;;;2.70;89.90;;;3.76;69.18;101530.38;5030624;28;20042;-79
2021/03/18 02:59:33;;;;;;;14.75;5.63;;;2.80;89.90;;;3.85;69.39;101526.16;5031252;28;20076;-79
2021/03/18 03:02:03;;;;;;;13.10;5.45;;;2.80;90.10;;;3.79;69.70;101530.19;5029887;28;20049;-80
2021/03/18 03:04:34;;;;;;;15.13;5.82;;;2.80;90.00;;;3.79;69.87;101524.78;5032158;28;20144;-79
2021/03/18 03:07:03;;;;;;;11.35;5.53;;;2.80;90.10;;;3.81;69.29;101517.44;5030458;28;20167;-79
2021/03/18 03:09:32;;;;;;;10.32;4.88;;;2.80;90.00;;;3.82;70.07;101526.38;5031071;28;20038;-79
2021/03/18 03:12:01;;;;;;;17.77;5.32;;;2.90;90.20;;;3.82;69.46;101521.00;5030997;28;20050;-79
2021/03/18 03:14:30;;;;;;;12.30;5.60;;;2.90;90.20;;;3.84;69.89;101535.19;5030758;28;20073;-79
2021/03/18 03:16:58;;;;;;;11.25;5.00;;;2.90;90.40;;;3.79;69.89;101532.88;5029229;28;20123;-79
2021/03/18 03:19:25;;;;;;;12.05;5.65;;;2.90;90.30;;;3.80;69.89;101531.88;5030224;28;20042;-80
2021/03/18 03:21:52;;;;;;;11.07;5.10;;;2.90;90.30;;;3.83;70.05;101539.72;5030783;28;20041;-79
2021/03/18 03:24:21;;;;;;;14.45;5.50;;;2.90;90.40;;;3.87;70.24;101535.81;5031760;28;20124;-79
2021/03/18 03:26:47;;;;;;;16.52;5.35;;;2.90;90.40;;;3.86;70.19;101528.72;5030305;28;20101;-79
2021/03/18 03:29:15;;;;;;;10.75;5.47;;;2.90;90.20;;;3.81;70.34;101521.94;5034896;28;20101;-79
2021/03/18 03:31:42;;;;;;;16.15;5.70;;;2.90;90.20;;;3.84;70.13;101524.44;5034576;28;20142;-79
2021/03/18 03:34:09;;;;;;;13.65;5.45;;;2.90;90.30;;;3.90;70.53;101524.84;5035307;28;20669;-79
2021/03/18 03:36:36;;;;;;;14.38;5.72;;;2.90;90.60;;;3.91;70.37;101528.38;5034370;28;20042;-79
2021/03/18 03:39:06;;;;;;;12.70;5.00;;;3.00;90.50;;;3.85;70.39;101529.69;5034672;28;20049;-80
2021/03/18 03:41:34;;;;;;;16.90;5.70;;;2.90;90.30;;;3.77;69.90;101534.81;5033836;28;20410;-79
2021/03/18 03:44:01;;;;;;;10.68;5.10;;;3.00;90.10;;;3.77;70.42;101531.25;5034543;28;20037;-80
2021/03/18 03:46:28;;;;;;;13.27;5.43;;;2.80;90.20;;;3.77;69.95;101529.44;5026683;28;20076;-80
2021/03/18 03:48:55;;;;;;;14.93;5.45;;;2.80;90.20;;;3.75;70.50;101528.69;5034583;28;20127;-79
2021/03/18 03:51:22;;;;;;;10.07;5.30;;;2.80;90.50;;;3.70;70.14;101530.84;5034534;28;20128;-80
2021/03/18 03:53:53;;;;;;;11.85;5.63;;;2.80;90.30;;;3.66;69.83;101534.75;5032971;28;20045;-79
2021/03/18 03:56:28;;;;;;;13.20;5.30;;;2.80;90.40;;;3.61;70.00;101545.00;5033909;28;20794;-79
2021/03/18 03:59:00;;;;;;;17.65;5.70;;;2.70;90.30;;;3.64;70.48;101547.47;5034335;28;20076;-79
2021/03/18 04:01:32;;;;;;;15.57;5.57;;;2.70;90.60;;;3.62;69.94;101552.97;5032026;28;20056;-80
2021/03/18 04:04:05;;;;;;;13.35;5.22;;;2.70;90.60;;;3.64;70.41;101548.31;5034149;28;20048;-79
2021/03/18 04:06:36;;;;;;;16.25;6.15;;;2.90;90.70;;;3.66;70.37;101550.91;5033032;28;20083;-79
2021/03/18 04:09:04;;;;;;;18.05;6.30;;;2.70;90.80;;;3.71;70.57;101552.28;5033802;28;20045;-79
2021/03/18 04:11:35;;;;;;;12.38;5.50;;;2.80;91.20;;;3.68;70.45;101551.66;5033984;28;20047;-79
2021/03/18 04:14:04;;;;;;;15.00;6.07;;;2.80;90.80;;;3.70;70.63;101552.41;5033881;28;20262;-79
2021/03/18 04:16:32;;;;;;;14.90;6.55;;;2.80;90.90;;;3.74;71.26;101548.50;5033829;28;20120;-79
2021/03/18 04:19:01;;;;;;;17.20;6.40;;;2.90;91.20;;;3.76;71.33;101543.84;5033947;28;20045;-80
2021/03/18 04:21:32;;;;;;;19.08;7.53;;;2.90;91.30;;;3.82;71.38;101538.00;5033420;28;20464;-79
2021/03/18 04:24:01;;;;;;;17.92;7.22;;;3.00;91.10;;;3.82;71.05;101540.69;5033222;28;20045;-80
2021/03/18 04:26:28;;;;;;;16.92;6.97;;;3.10;90.90;;;3.82;71.66;101540.69;5032471;28;20045;-79
2021/03/18 04:28:55;;;;;;;13.63;6.63;;;3.10;91.00;;;3.81;71.82;101532.72;5033579;28;20380;-79
2021/03/18 04:31:23;;;;;;;20.63;7.05;;;3.10;91.20;;;3.85;72.16;101539.63;5032503;28;20056;-79
2021/03/18 04:33:50;;;;;;;23.00;8.60;;;3.20;91.20;;;3.87;71.91;101546.59;5032905;28;20457;-79
2021/03/18 04:36:17;;;;;;;11.65;6.55;;;3.20;91.20;;;3.86;72.57;101531.41;5033429;28;20116;-79
2021/03/18 04:38:44;;;;;;;16.77;6.97;;;3.20;91.20;;;3.87;71.87;101530.44;5031562;28;20056;-79
2021/03/18 04:41:11;;;;;;;13.32;6.22;;;3.20;91.10;;;3.92;72.27;101530.09;5032646;28;20299;-79
2021/03/18 04:43:39;;;;;;;15.43;6.90;;;3.30;91.40;;;3.94;72.29;101529.97;5041238;28;20076;-79
2021/03/18 04:46:08;;;;;;;17.13;6.35;;;3.30;91.20;;;3.97;72.17;101529.75;5032340;28;20080;-79
2021/03/18 04:48:38;;;;;;;15.43;6.68;;;3.40;91.00;;;3.98;72.29;101528.75;5032414;28;20124;-79
2021/03/18 04:51:06;;;;;;;18.52;6.97;;;3.40;91.10;;;3.97;72.45;101529.75;5031594;28;20096;-79
2021/03/18 04:53:33;;;;;;;14.80;6.07;;;3.40;91.10;;;3.99;72.76;101530.50;5032755;28;20060;-79
2021/03/18 04:56:00;;;;;;;17.30;7.05;;;3.40;91.40;;;4.06;72.29;101526.34;5031269;28;20120;-79
2021/03/18 04:58:29;;;;;;;14.40;6.18;;;3.50;91.60;;;4.04;72.76;101517.53;5031771;28;20140;-79
2021/03/18 05:00:57;;;;;;;12.32;6.68;;;3.50;91.50;;;4.03;72.91;101526.59;5033451;28;20045;-79
2021/03/18 05:03:25;;;;;;;17.70;6.50;;;3.50;91.40;;;4.03;72.71;101513.97;5032975;28;20124;-79
2021/03/18 05:05:55;;;;;;;14.80;6.90;;;3.50;91.30;;;4.04;72.59;101512.16;5031210;28;20060;-79
2021/03/18 05:08:24;;;;;;;13.80;5.90;;;3.50;91.40;;;4.05;73.04;101508.47;5032243;28;20100;-80
2021/03/18 05:10:51;;;;;;;13.00;6.60;;;3.60;91.40;;;4.05;72.84;101508.47;5032764;28;20034;-79
2021/03/18 05:13:18;;;;;;;13.77;7.20;;;3.50;91.60;;;4.11;72.72;101507.97;5032698;28;20097;-79
2021/03/18 05:15:46;;;;;;;16.73;6.93;;;3.60;91.40;;;4.07;72.64;101503.81;5032585;28;20038;-79
2021/03/18 05:18:16;;;;;;;14.90;6.82;;;3.60;91.40;;;4.05;72.82;101503.94;5031885;28;20137;-79
2021/03/18 05:20:47;;;;;;;14.63;6.80;;;3.50;91.40;;;4.01;72.82;101499.75;5033092;28;20135;-79
2021/03/18 05:23:17;;;;;;;13.48;6.55;;;3.50;91.20;;;4.04;72.83;101496.00;5032198;28;20124;-79
2021/03/18 05:25:45;;;;;;;18.63;7.55;;;3.50;91.20;;;4.05;72.85;101493.16;5031855;28;20073;-79
2021/03/18 05:28:12;;;;;;;12.02;6.43;;;3.50;91.20;;;4.07;72.69;101484.97;5032424;28;20055;-79
2021/03/18 05:30:40;;;;;;;14.15;6.85;;;3.50;91.50;;;4.16;72.23;101494.19;5032613;28;20045;-79
2021/03/18 05:33:07;;;;;;;16.60;6.95;;;3.50;91.40;;;4.17;71.94;101495.88;5032805;28;20465;-79
2021/03/18 05:35:35;;;;;;;15.43;6.93;;;3.50;91.30;;;4.12;72.20;101490.88;5032068;28;20128;-79
2021/03/18 05:38:02;;;;;;;19.80;7.65;;;3.50;91.30;;;4.14;72.55;101483.53;5031884;28;20124;-79
2021/03/18 05:40:30;;;;;;;16.05;6.65;;;3.50;91.60;;;4.21;71.98;101486.59;5031213;28;20042;-79
2021/03/18 05:42:58;;;;;;;16.40;6.93;;;3.60;91.20;;;4.14;72.31;101497.00;5031861;28;20132;-79
2021/03/18 05:45:25;;;;;;;13.52;6.93;;;3.50;91.10;;;4.19;72.29;101492.09;5032570;28;20041;-79
2021/03/18 05:47:52;;;;;;;16.52;7.25;;;3.60;91.50;;;4.15;72.37;101490.63;5032058;28;20780;-79
2021/03/18 05:50:21;;;;;;;14.73;7.22;;;3.60;91.50;;;4.16;72.92;101495.03;5031828;28;20041;-79
2021/03/18 05:52:50;;;;;;;17.98;6.95;;;3.60;91.50;;;4.16;72.49;101484.25;5032644;28;20176;-80
2021/03/18 05:55:20;;;;;;;18.08;7.50;;;3.60;91.40;;;4.14;72.56;101488.91;5033110;28;20109;-83
2021/03/18 05:57:50;;;;;;;18.50;7.47;;;3.60;91.50;;;4.22;72.34;101483.78;5035875;28;20033;-89
2021/03/18 06:00:19;;;;;;;19.50;8.50;;;3.60;91.30;;;4.21;72.35;101476.69;5032693;28;20503;-89
2021/03/18 06:02:46;;;;;;;14.95;7.75;;;3.70;91.10;;;4.20;72.90;101479.50;5029906;28;20211;-89
2021/03/18 06:05:16;;;;;;;18.05;7.60;;;3.70;91.30;;;4.21;72.72;101476.69;5028181;28;20156;-90
2021/03/18 06:07:47;;;;;;;15.95;8.00;;;3.70;91.50;;;4.21;73.15;101476.69;5030348;28;20057;-89
2021/03/18 06:10:17;;;;;;;17.00;8.52;;;3.70;91.40;;;4.18;72.55;101471.53;5030631;28;20045;-88
2021/03/18 06:12:44;;;;;;;18.08;9.27;;;3.70;91.20;;;4.21;72.91;101470.44;5028861;28;20152;-89
2021/03/18 06:15:14;;;;;;;22.92;9.43;;;3.70;91.10;;;4.21;73.18;101471.28;5031340;28;20045;-90
2021/03/18 06:17:42;;;;;;;18.90;9.35;;;3.70;91.30;;;4.21;72.97;101471.28;5028988;28;20069;-86
2021/03/18 06:20:14;;;;;;;17.45;7.95;;;3.70;91.10;;;4.22;73.03;101470.28;5032035;28;20091;-86
2021/03/18 06:22:43;;;;;;;14.95;8.68;;;3.70;91.10;;;4.33;72.86;101476.69;5031272;28;20137;-89
2021/03/18 06:25:24;;;;;;;17.33;8.60;;;3.80;91.10;;;4.41;72.68;101466.16;5030097;28;20082;-87
2021/03/18 06:28:12;;;;;;;21.73;9.45;;;3.80;91.10;;;4.33;72.84;101460.53;5027432;28;20038;-87
2021/03/18 06:30:43;;;;;;;18.13;9.13;;;3.80;91.00;;;4.28;72.56;101461.75;5030344;28;20752;-88
2021/03/18 06:33:21;;;;;;;17.92;8.75;;;3.80;90.90;;;4.32;72.82;101462.34;5030421;28;20553;-88
2021/03/18 06:35:48;;;;;;;18.17;9.40;;;3.80;91.00;;;4.29;73.12;101449.97;5026979;28;20092;-87
2021/03/18 06:38:16;;;;;;;21.65;9.40;;;3.80;91.10;;;4.30;72.97;101451.72;5029199;28;20041;-88
2021/03/18 06:40:45;;;;;;;16.08;8.93;;;3.90;91.10;;;4.34;72.80;101448.75;5036373;28;20518;-87
2021/03/18 06:43:13;;;;;;;17.10;8.68;;;3.90;91.10;;;4.35;72.32;101453.19;5028174;28;20427;-87
2021/03/18 06:45:43;;;;;;;15.18;8.55;;;3.90;90.60;;;4.37;72.78;101454.78;5031370;28;20099;-85
2021/03/18 06:48:13;;;;;;;16.95;8.15;;;4.00;90.80;;;4.39;72.92;101443.88;5033587;28;20045;-82
2021/03/18 06:50:43;;;;;;;17.27;9.27;;;4.00;90.60;;;4.37;72.68;101448.53;5032317;28;20050;-82
2021/03/18 06:53:19;;;;;;;21.20;9.20;;;4.00;90.30;;;4.38;72.76;101450.22;5031953;28;20080;-81
2021/03/18 06:55:46;;;;;;;14.80;8.52;;;4.00;90.10;;;4.41;73.33;101450.84;5032026;28;20513;-82
2021/03/18 06:58:20;;;;;;;16.58;8.52;;;4.10;90.50;;;4.47;72.96;101441.41;5032930;28;20051;-82
2021/03/18 07:00:50;;;;;;;18.60;8.93;;;4.10;90.50;;;4.48;73.69;101443.16;5033778;28;20065;-82
2021/03/18 07:03:29;;;;;;;17.33;9.00;;;4.20;90.60;;;4.52;72.99;101444.63;5036275;28;20041;-82
2021/03/18 07:05:57;;;;;;;20.90;8.88;;;4.20;90.30;;;4.50;73.57;101444.72;5036296;28;20041;-82
2021/03/18 07:08:29;;;;;;;18.02;9.45;;;4.30;90.70;;;4.52;73.78;101451.84;5036546;28;20980;-82
2021/03/18 07:10:57;;;;;;;19.55;8.50;;;4.40;90.40;;;4.55;74.12;101439.00;5036048;28;20133;-82
2021/03/18 07:13:27;;;;;;;19.00;9.02;;;4.50;90.40;;;4.57;74.42;101437.03;5036351;28;20128;-81
2021/03/18 07:15:58;;;;;;;21.88;9.13;;;4.60;90.40;;;4.60;73.90;101431.38;5035550;28;20097;-84
2021/03/18 07:18:25;;;;;;;20.48;9.50;;;4.60;89.90;;;4.66;74.15;101425.50;5036400;28;20081;-81
2021/03/18 07:21:03;;;;;;;24.52;10.75;;;4.70;89.80;;;4.72;74.06;101432.22;5035357;28;20041;-81
2021/03/18 07:23:41;;;;;;;19.73;9.85;;;4.80;89.80;;;4.77;73.52;101434.56;5035728;28;20471;-82
2021/03/18 07:26:19;;;;;;;19.85;10.23;;;4.90;89.20;;;4.81;74.50;101433.31;5035625;28;20574;-82
2021/03/18 07:28:49;;;;;;;23.00;11.18;;;5.00;89.30;;;4.86;74.59;101426.56;5035667;28;20080;-81
2021/03/18 07:31:18;;;;;;;19.25;8.80;;;5.10;89.10;;;4.90;73.89;101429.88;5033398;28;20124;-81
2021/03/18 07:33:48;;;;;;;22.48;8.55;;;5.20;88.30;;;4.96;73.82;101434.75;5031571;28;20183;-81
2021/03/18 07:36:17;;;;;;;19.73;8.50;;;5.30;88.00;;;5.04;74.19;101429.59;5031305;28;20124;-81
2021/03/18 07:38:45;;;;;;;20.35;8.43;;;5.40;88.30;;;5.11;73.81;101432.66;5031701;28;20081;-81
2021/03/18 07:41:14;;;;;;;18.75;7.72;;;5.50;87.60;;;5.18;73.54;101438.38;5031333;28;20554;-81
2021/03/18 07:43:43;;;;;;;24.05;8.05;;;5.60;87.20;;;5.21;73.76;101432.75;5031607;28;20132;-81
2021/03/18 07:46:14;;;;;;;19.42;8.25;;;5.70;87.20;;;5.26;73.66;101435.94;5031933;28;20052;-81
2021/03/18 07:48:44;;;;;;;18.98;8.23;;;5.80;86.70;;;5.29;73.24;101438.34;5032207;28;20492;-81
2021/03/18 07:51:12;;;;;;;19.35;8.30;;;5.80;86.80;;;5.35;73.37;101435.16;5031558;28;20041;-81
2021/03/18 07:53:40;;;;;;;17.83;8.23;;;5.90;86.30;;;5.38;73.44;101439.44;5031379;28;20053;-81
2021/03/18 07:56:14;;;;;;;21.00;7.95;;;6.00;86.10;;;5.38;73.81;101434.91;5031220;28;20049;-81
2021/03/18 07:58:43;;;;;;;23.70;7.45;;;6.00;86.40;;;5.45;73.96;101436.09;5031091;28;20050;-81
2021/03/18 08:01:36;;;;;;;15.02;6.18;;;6.10;86.80;;;5.52;73.88;101430.19;5031810;28;20509;-81
2021/03/18 08:04:06;;;;;;;18.05;5.63;;;6.10;87.20;;;5.55;73.45;101428.09;5033258;28;20056;-81
2021/03/18 08:06:51;;;;;;;18.20;6.20;;;6.10;86.50;;;5.54;73.44;101426.38;5034487;28;20156;-81
2021/03/18 08:09:50;;;;;;;15.57;5.72;;;6.10;86.50;;;5.59;73.38;101428.69;5033954;28;20042;-81
2021/03/18 08:12:32;;;;;;;15.15;5.18;;;6.10;86.20;;;5.59;73.14;101431.38;5033717;28;20041;-81
2021/03/18 08:15:43;;;;;;;20.50;6.20;;;6.10;86.60;;;5.60;73.46;101428.56;5028935;28;20057;-81
2021/03/18 08:18:39;;;;;;;16.70;7.38;;;6.20;86.50;;;5.62;73.34;101428.44;5034356;28;20193;-81
2021/03/18 08:21:10;;;;;;;16.05;7.07;;;6.20;86.10;;;5.68;73.11;101419.81;5033126;28;20060;-82
2021/03/18 08:23:49;;;;;;;18.85;7.00;;;6.20;86.50;;;5.56;73.14;101416.31;5035390;28;20119;-82
2021/03/18 08:26:48;;;;;;;19.17;8.25;;;6.30;85.90;;;5.62;73.74;101423.03;5022534;28;20128;-82
2021/03/18 08:29:22;;;;;;;19.58;8.10;;;6.30;86.00;;;5.68;73.43;101420.66;5032858;28;20112;-82
2021/03/18 08:32:01;;;;;;;18.02;7.57;;;6.30;86.20;;;5.76;73.69;101422.69;5030187;28;20072;-82
2021/03/18 08:34:53;;;;;;;18.48;7.50;;;6.40;86.10;;;5.79;73.49;101419.75;5030207;28;20044;-81
2021/03/18 08:37:40;;;;;;;16.45;9.10;;;6.40;85.80;;;5.83;73.62;101423.06;5030200;28;20140;-82
2021/03/18 08:40:25;;;;;;;23.77;9.57;;;6.40;85.90;;;5.80;73.01;101426.00;5030528;28;20115;-81
2021/03/18 08:42:59;;;;;;;23.70;8.88;;;6.50;85.60;;;5.88;72.55;101421.66;5029491;28;20037;-82
2021/03/18 08:45:42;;;;;;;21.00;7.53;;;6.50;84.90;;;5.90;72.92;101423.38;5030490;28;20152;-81
2021/03/18 08:48:24;;;;;;;22.88;8.43;;;6.50;84.90;;;5.95;72.59;101432.81;5030179;28;20453;-82
2021/03/18 08:50:58;;;;;;;19.30;8.38;;;6.60;84.60;;;5.98;72.70;101429.88;5028393;28;20092;-82
2021/03/18 08:53:36;;;;;;;16.70;8.48;;;6.60;84.70;;;5.94;72.94;101427.50;5028670;28;20045;-82
2021/03/18 08:56:05;;;;;;;25.02;9.80;;;6.70;84.70;;;5.88;72.86;101434.28;5031206;28;20064;-82
2021/03/18 08:58:53;;;;;;;25.95;11.45;;;6.90;84.30;;;5.95;73.27;101431.94;5029830;28;20076;-82
2021/03/18 09:01:22;;;;;;;29.38;11.43;;;6.90;84.00;;;5.97;72.86;101436.25;5031334;28;20628;-82
2021/03/18 09:03:59;;;;;;;30.77;13.73;;;7.00;83.50;;;6.03;72.64;101433.00;5030345;28;20590;-82
2021/03/18 09:06:30;;;;;;;30.70;12.93;;;6.90;83.90;;;6.06;73.00;101434.59;5027015;28;20064;-82
2021/03/18 09:09:00;;;;;;;36.10;13.77;;;7.00;83.60;;;6.01;72.52;101434.13;5053525;28;20052;-82
2021/03/18 09:11:28;;;;;;;46.70;16.08;;;7.00;83.30;;;6.08;73.18;101432.63;5030056;28;20149;-82
2021/03/18 09:13:55;;;;;;;45.70;17.85;;;7.10;83.60;;;6.17;72.78;101436.34;5034315;28;20049;-82
2021/03/18 09:16:23;;;;;;;37.83;17.05;;;7.10;83.50;;;6.21;72.67;101433.28;5036003;28;20052;-82
2021/03/18 09:18:59;;;;;;;38.45;17.33;;;7.10;83.20;;;6.22;73.15;101434.13;5034877;28;20050;-82
2021/03/18 09:21:35;;;;;;;41.95;18.88;;;7.10;83.50;;;6.29;72.72;101437.16;5033645;28;20053;-82
2021/03/18 09:24:08;;;;;;;52.00;21.15;;;7.10;84.00;;;6.27;72.50;101431.88;5034572;28;20052;-82
2021/03/18 09:26:36;;;;;;;53.33;21.75;;;7.00;83.70;;;6.22;72.36;101429.56;5033971;28;20060;-82
2021/03/18 09:29:04;;;;;;;53.72;22.10;;;7.00;83.40;;;6.27;72.05;101423.78;5033968;28;20660;-82
2021/03/18 09:31:33;;;;;;;67.18;28.92;;;7.00;83.90;;;6.23;71.72;101425.03;5031447;28;20098;-82
2021/03/18 09:34:00;;;;;;;67.88;29.85;;;7.10;83.40;;;6.24;71.91;101424.03;5028942;28;20056;-82
2021/03/18 09:36:28;;;;;;;64.45;28.92;;;7.10;82.90;;;6.26;72.46;101424.75;5029582;28;20052;-82
2021/03/18 09:38:58;;;;;;;62.75;28.90;;;7.10;83.40;;;6.31;72.11;101427.06;5054447;28;20077;-82
2021/03/18 09:41:30;;;;;;;57.35;27.77;;;7.10;83.20;;;6.32;71.88;101426.06;5030335;28;20056;-82
2021/03/18 09:44:11;;;;;;;54.22;25.60;;;7.10;82.80;;;6.30;72.00;101425.34;5029332;28;20069;-82
2021/03/18 09:50:44;;;;;;;58.05;24.63;;;7.20;83.20;;;6.33;71.20;101414.28;5016930;28;20040;-82
2021/03/18 09:53:12;;;;;;;58.53;27.05;;;7.20;81.80;;;6.39;71.64;101414.56;5036538;28;20053;-82
2021/03/18 09:55:49;;;;;;;64.28;26.50;;;7.30;82.50;;;6.46;71.50;101414.91;4978755;28;20084;-81
2021/03/18 09:58:18;;;;;;;61.42;26.33;;;7.30;82.20;;;6.46;70.95;101410.34;5014550;28;20052;-82
2021/03/18 10:00:46;;;;;;;62.10;25.88;;;7.30;81.90;;;6.34;69.96;101407.84;5043098;28;20064;-82
2021/03/18 10:03:13;;;;;;;59.88;27.23;;;7.30;81.40;;;6.40;70.25;101415.44;5039461;28;20104;-82
2021/03/18 10:05:40;;;;;;;56.22;26.65;;;7.30;81.00;;;6.42;70.14;101408.06;5036320;28;20037;-81
2021/03/18 10:08:07;;;;;;;61.67;28.85;;;7.40;81.10;;;6.45;70.17;101410.47;5045614;28;20132;-82
2021/03/18 10:10:34;;;;;;;62.92;28.10;;;7.40;80.70;;;6.44;70.38;101411.47;5042489;28;20084;-81
2021/03/18 10:13:02;;;;;;;70.22;31.48;;;7.50;81.10;;;6.48;70.51;101412.06;5045576;28;20056;-82
2021/03/18 10:15:30;;;;;;;56.08;29.05;;;7.40;80.80;;;6.51;69.40;101409.94;5044822;28;20034;-82
2021/03/18 10:17:58;;;;;;;55.35;27.83;;;7.50;80.40;;;6.49;69.94;101392.97;5041982;28;20041;-82
2021/03/18 10:20:31;;;;;;;50.40;24.33;;;7.50;80.10;;;6.53;70.11;101393.56;5043800;28;20123;-82
2021/03/18 10:23:03;;;;;;;48.33;23.13;;;7.60;80.40;;;6.51;70.50;101391.03;5042743;28;20056;-82
2021/03/18 10:25:32;;;;;;;41.13;18.80;;;7.70;80.10;;;6.56;70.12;101394.16;5041144;28;20488;-82
2021/03/18 10:28:08;;;;;;;45.60;21.55;;;7.80;79.60;;;6.64;69.97;101383.53;5057625;28;20057;-81
2021/03/18 10:30:40;;;;;;;42.38;21.88;;;7.80;79.50;;;6.63;69.38;101384.50;5045239;28;20041;-82
2021/03/18 10:33:13;;;;;;;35.80;19.63;;;8.00;78.70;;;6.65;69.72;101373.56;5047166;28;20046;-82
2021/03/18 10:35:43;;;;;;;36.80;19.05;;;8.00;78.40;;;6.72;68.80;101376.53;5044067;28;20045;-81
2021/03/18 10:38:14;;;;;;;34.25;17.55;;;8.10;77.20;;;6.77;68.58;101375.13;5048470;28;20045;-82
2021/03/18 10:40:43;;;;;;;31.98;17.13;;;8.00;78.00;;;6.78;68.84;101376.00;5046208;28;20045;-82